createdAt,value
2023-01-11T00:01:24.967Z,98256.31
2023-01-11T00:03:53.157Z,98269.13
2023-01-11T00:06:21.688Z,98254.66
2023-01-11T00:08:49.927Z,98262.34
2023-01-11T00:11:18.919Z,98250.44
2023-01-11T00:13:47.309Z,98268.28
2023-01-11T00:16:16.096Z,98268.28
2023-01-11T00:18:46.107Z,98262.38
2023-01-11T00:21:15.094Z,98275.97
2023-01-11T00:23:43.689Z,98264.13
2023-01-11T00:26:14.932Z,98268.34
2023-01-11T00:28:43.532Z,98250.53
2023-01-11T00:31:12.322Z,98250.56
2023-01-11T00:33:40.593Z,98239.53
2023-01-11T00:36:10.947Z,98253.97
2023-01-11T00:38:47.026Z,98243.81
2023-01-11T00:41:34.175Z,98237.84
2023-01-11T00:44:20.534Z,98224.28
2023-01-11T00:47:05.939Z,98231.94
2023-01-11T00:49:35.700Z,98217.50
2023-01-11T00:52:09.235Z,98202.25
2023-01-11T00:54:38.110Z,98214.13
2023-01-11T00:57:07.698Z,98216.66
2023-01-11T00:59:36.559Z,98210.69
2023-01-11T01:02:05.228Z,98210.66
2023-01-11T01:04:34.038Z,98209.88
2023-01-11T01:07:02.769Z,98219.19
2023-01-11T01:09:32.828Z,98211.56
2023-01-11T01:12:02.102Z,98214.94
2023-01-11T01:14:29.725Z,98222.56
2023-01-11T01:16:59.647Z,98216.59
2023-01-11T01:19:29.228Z,98208.06
2023-01-11T01:21:59.564Z,98203.78
2023-01-11T01:24:29.496Z,98212.25
2023-01-11T01:27:00.002Z,98221.59
2023-01-11T01:29:28.452Z,98213.97
2023-01-11T01:31:57.109Z,98220.72
2023-01-11T01:34:25.460Z,98209.69
2023-01-11T01:36:53.739Z,98213.91
2023-01-11T01:39:22.079Z,98205.47
2023-01-11T01:41:50.681Z,98202.94
2023-01-11T01:44:56.473Z,98196.16
2023-01-11T01:47:32.021Z,98184.31
2023-01-11T01:50:06.287Z,98191.94
2023-01-11T01:52:35.998Z,98185.97
2023-01-11T01:55:08.936Z,98192.78
2023-01-11T01:57:41.473Z,98189.38
2023-01-11T02:00:14.025Z,98156.28
2023-01-11T02:02:44.989Z,98172.47
2023-01-11T02:05:16.138Z,98176.72
2023-01-11T02:07:46.473Z,98176.72
2023-01-11T02:10:18.065Z,98169.13
2023-01-11T02:12:51.764Z,98161.47
2023-01-11T02:15:24.180Z,98167.41
2023-01-11T02:17:52.580Z,98165.69
2023-01-11T02:20:36.317Z,98150.47
2023-01-11T02:23:21.468Z,98164.03
2023-01-11T02:26:40.152Z,98157.28
2023-01-11T02:29:17.695Z,98147.06
2023-01-11T02:31:52.891Z,98146.25
2023-01-11T02:34:30.904Z,98144.59
2023-01-11T02:37:13.855Z,98141.19
2023-01-11T02:39:52.864Z,98146.28
2023-01-11T02:42:46.397Z,98133.56
2023-01-11T02:45:27.742Z,98127.63
2023-01-11T02:48:01.573Z,98130.22
2023-01-11T02:50:36.504Z,98135.28
2023-01-11T02:53:11.452Z,98139.53
2023-01-11T02:55:42.944Z,98135.28
2023-01-11T02:58:14.825Z,98135.28
2023-01-11T03:00:46.307Z,98133.63
2023-01-11T03:03:17.611Z,98128.56
2023-01-11T03:05:50.646Z,98117.53
2023-01-11T03:08:44.818Z,98112.41
2023-01-11T03:11:37.250Z,98098.84
2023-01-11T03:14:14.234Z,98113.28
2023-01-11T03:16:53.565Z,98112.44
2023-01-11T03:19:33.673Z,98114.13
2023-01-11T03:22:09.321Z,98112.44
2023-01-11T03:24:46.660Z,98099.72
2023-01-11T03:27:23.327Z,98095.47
2023-01-11T03:29:56.219Z,98099.75
2023-01-11T03:32:34.064Z,98092.97
2023-01-11T03:35:18.476Z,98096.34
2023-01-11T03:37:55.949Z,98087.03
2023-01-11T03:40:30.941Z,98096.38
2023-01-11T03:43:13.459Z,98084.47
2023-01-11T03:45:47.825Z,98078.53
2023-01-11T03:48:22.044Z,98059.06
2023-01-11T03:50:52.986Z,98076.00
2023-01-11T03:53:24.080Z,98073.47
2023-01-11T03:55:57.398Z,98071.78
2023-01-11T03:58:27.878Z,98056.47
2023-01-11T04:00:57.080Z,98042.06
2023-01-11T04:03:28.533Z,98072.63
2023-01-11T04:06:00.880Z,98062.44
2023-01-11T04:08:31.330Z,98048.00
2023-01-11T04:10:59.987Z,98067.53
2023-01-11T04:13:28.473Z,98053.94
2023-01-11T04:15:57.288Z,98052.25
2023-01-11T04:18:27.187Z,98046.31
2023-01-11T04:20:55.978Z,98056.50
2023-01-11T04:23:24.228Z,98015.78
2023-01-11T04:25:53.566Z,98072.59
2023-01-11T04:28:22.049Z,98043.75
2023-01-11T04:30:51.472Z,98056.47
2023-01-11T04:33:20.374Z,98043.78
2023-01-11T04:35:51.016Z,98054.78
2023-01-11T04:38:20.398Z,98036.13
2023-01-11T04:40:49.609Z,98052.22
2023-01-11T04:43:17.222Z,98054.78
2023-01-11T04:45:45.807Z,98055.66
2023-01-11T04:48:14.231Z,98060.72
2023-01-11T04:50:42.977Z,98051.41
2023-01-11T04:53:14.800Z,98051.41
2023-01-11T04:55:43.874Z,98056.50
2023-01-11T04:58:12.399Z,98044.59
2023-01-11T05:00:41.120Z,98047.16
2023-01-11T05:03:09.383Z,98047.16
2023-01-11T05:05:38.256Z,98048.84
2023-01-11T05:08:07.344Z,98048.00
2023-01-11T05:10:37.283Z,98038.69
2023-01-11T05:13:05.665Z,98042.09
2023-01-11T05:15:36.113Z,98042.94
2023-01-11T05:18:04.574Z,98053.94
2023-01-11T05:20:33.368Z,98034.44
2023-01-11T05:23:01.732Z,98029.34
2023-01-11T05:25:30.462Z,98021.72
2023-01-11T05:28:00.268Z,98025.94
2023-01-11T05:30:28.856Z,98021.72
2023-01-11T05:32:57.431Z,98028.50
2023-01-11T05:35:26.554Z,98011.50
2023-01-11T05:37:54.810Z,97994.56
2023-01-11T05:40:23.180Z,97996.22
2023-01-11T05:42:51.661Z,97995.38
2023-01-11T05:45:29.627Z,97989.44
2023-01-11T05:47:57.989Z,97989.44
2023-01-11T05:50:27.565Z,97987.72
2023-01-11T05:52:57.355Z,97993.66
2023-01-11T05:55:25.571Z,97989.44
2023-01-11T05:57:54.309Z,97989.44
2023-01-11T06:00:24.999Z,97976.72
2023-01-11T06:02:53.613Z,97982.59
2023-01-11T06:05:22.197Z,97974.13
2023-01-11T06:07:50.557Z,97948.69
2023-01-11T06:10:19.852Z,97974.97
2023-01-11T06:13:13.424Z,97960.53
2023-01-11T06:15:43.160Z,97952.06
2023-01-11T06:18:12.635Z,97964.75
2023-01-11T06:20:41.456Z,97967.28
2023-01-11T06:23:09.928Z,97973.19
2023-01-11T06:25:39.409Z,97970.66
2023-01-11T06:28:07.838Z,97963.88
2023-01-11T06:30:38.028Z,97968.91
2023-01-11T06:33:09.394Z,97974.84
2023-01-11T06:35:40.627Z,97980.78
2023-01-11T06:38:11.145Z,97967.19
2023-01-11T06:40:41.896Z,97978.19
2023-01-11T06:43:11.411Z,97978.19
2023-01-11T06:45:39.839Z,97975.59
2023-01-11T06:48:10.327Z,97972.22
2023-01-11T06:50:38.821Z,97987.47
2023-01-11T06:53:09.152Z,97989.16
2023-01-11T06:55:37.733Z,97982.34
2023-01-11T06:58:07.163Z,97990.00
2023-01-11T07:00:35.941Z,97962.03
2023-01-11T07:03:05.565Z,97967.13
2023-01-11T07:05:37.325Z,97965.41
2023-01-11T07:08:06.148Z,97960.31
2023-01-11T07:10:34.756Z,97966.25
2023-01-11T07:13:03.492Z,97958.63
2023-01-11T07:15:32.183Z,97959.44
2023-01-11T07:18:01.793Z,97973.88
2023-01-11T07:20:30.866Z,97968.75
2023-01-11T07:23:02.350Z,97965.28
2023-01-11T07:25:31.740Z,97972.06
2023-01-11T07:28:01.345Z,97967.00
2023-01-11T07:30:31.866Z,97956.78
2023-01-11T07:33:02.027Z,97953.34
2023-01-11T07:35:30.911Z,97954.19
2023-01-11T07:38:01.224Z,97954.16
2023-01-11T07:40:29.944Z,97944.75
2023-01-11T07:43:14.848Z,97949.81
2023-01-11T07:45:49.718Z,97956.59
2023-01-11T07:48:25.319Z,97943.78
2023-01-11T07:50:54.908Z,97951.38
2023-01-11T07:53:26.583Z,97950.47
2023-01-11T07:55:56.876Z,97951.25
2023-01-11T07:58:26.295Z,97952.97
2023-01-11T08:00:54.831Z,97946.09
2023-01-11T08:03:23.651Z,97935.91
2023-01-11T08:05:52.984Z,97947.81
2023-01-11T08:08:21.707Z,97934.09
2023-01-11T08:11:12.541Z,97927.22
2023-01-11T08:13:58.545Z,97918.84
2023-01-11T08:16:29.649Z,97928.03
2023-01-11T08:18:58.251Z,97923.66
2023-01-11T08:21:28.593Z,97921.16
2023-01-11T08:23:57.599Z,97933.81
2023-01-11T08:26:29.619Z,97924.38
2023-01-11T08:28:58.323Z,97913.34
2023-01-11T08:31:27.186Z,97931.03
2023-01-11T08:33:55.736Z,97908.09
2023-01-11T08:36:24.642Z,97917.44
2023-01-11T08:38:56.593Z,97913.13
2023-01-11T08:41:26.602Z,97918.09
2023-01-11T08:43:55.797Z,97915.50
2023-01-11T08:46:24.753Z,97923.19
2023-01-11T08:48:54.030Z,97918.84
2023-01-11T08:51:22.968Z,97922.97
2023-01-11T08:53:53.811Z,97927.09
2023-01-11T08:56:22.394Z,97922.03
2023-01-11T08:58:53.547Z,97916.06
2023-01-11T09:01:21.886Z,97926.13
2023-01-11T09:03:53.079Z,97925.22
2023-01-11T09:06:22.222Z,97914.97
2023-01-11T09:08:50.998Z,97919.19
2023-01-11T09:11:37.211Z,97919.22
2023-01-11T09:14:07.515Z,97926.13
2023-01-11T09:16:36.517Z,97916.78
2023-01-11T09:19:05.087Z,97926.94
2023-01-11T09:21:34.541Z,97924.44
2023-01-11T09:24:03.718Z,97912.56
2023-01-11T09:26:32.005Z,97923.50
2023-01-11T09:29:00.836Z,97915.88
2023-01-11T09:31:31.937Z,97918.28
2023-01-11T09:34:04.998Z,97907.22
2023-01-11T09:36:36.582Z,97922.41
2023-01-11T09:39:08.923Z,97923.19
2023-01-11T09:42:00.999Z,97908.59
2023-01-11T09:44:31.654Z,97911.31
2023-01-11T09:47:22.164Z,97916.19
2023-01-11T09:49:57.972Z,97917.03
2023-01-11T09:52:33.571Z,97914.44
2023-01-11T09:55:02.670Z,97905.88
2023-01-11T09:57:47.850Z,97896.63
2023-01-11T10:00:26.519Z,97893.03
2023-01-11T10:03:28.252Z,97889.53
2023-01-11T10:06:09.371Z,97872.63
2023-01-11T10:18:33.919Z,97858.94
2023-01-11T10:18:39.241Z,97849.78
2023-01-11T10:20:54.219Z,97863.16
2023-01-11T10:23:29.200Z,97863.16
2023-01-11T10:26:07.407Z,97861.28
2023-01-11T10:28:48.123Z,97846.75
2023-01-11T10:31:30.462Z,97843.09
2023-01-11T10:34:25.302Z,97847.03
2023-01-11T10:37:19.184Z,97836.78
2023-01-11T10:40:15.330Z,97835.88
2023-01-11T10:42:49.384Z,97822.06
2023-01-11T10:45:20.549Z,97819.25
2023-01-11T10:47:57.135Z,97823.59
2023-01-11T10:50:31.859Z,97800.47
2023-01-11T10:53:09.371Z,97813.22
2023-01-11T10:55:46.298Z,97815.72
2023-01-11T10:58:26.305Z,97811.38
2023-01-11T11:01:08.940Z,97820.91
2023-01-11T11:04:05.982Z,97815.78
2023-01-11T11:06:47.132Z,97815.91
2023-01-11T11:09:25.540Z,97805.13
2023-01-11T11:12:00.923Z,97822.84
2023-01-11T11:14:37.772Z,97803.28
2023-01-11T11:17:15.901Z,97812.47
2023-01-11T11:19:44.880Z,97806.38
2023-01-11T11:22:14.272Z,97802.84
2023-01-11T11:24:48.385Z,97800.44
2023-01-11T11:27:21.271Z,97802.09
2023-01-11T11:29:52.974Z,97801.44
2023-01-11T11:32:27.665Z,97818.00
2023-01-11T11:34:56.828Z,97808.16
2023-01-11T11:37:28.417Z,97820.41
2023-01-11T11:39:59.264Z,97800.28
2023-01-11T11:42:29.233Z,97807.16
2023-01-11T11:45:19.324Z,97793.53
2023-01-11T11:48:06.275Z,97790.28
2023-01-11T11:50:49.152Z,97797.88
2023-01-11T11:53:44.333Z,97789.44
2023-01-11T11:56:23.088Z,97777.50
2023-01-11T11:58:52.522Z,97786.88
2023-01-11T12:01:25.788Z,97787.78
2023-01-11T12:04:05.231Z,97767.38
2023-01-11T12:06:34.869Z,97779.31
2023-01-11T12:09:05.677Z,97782.69
2023-01-11T12:11:42.208Z,97786.91
2023-01-11T12:14:20.667Z,97773.22
2023-01-11T12:16:50.239Z,97776.66
2023-01-11T12:19:31.257Z,97775.00
2023-01-11T12:22:20.873Z,97758.00
2023-01-11T12:25:04.292Z,97776.56
2023-01-11T12:27:42.577Z,97767.31
2023-01-11T12:30:24.347Z,97768.91
2023-01-11T12:33:30.871Z,97770.56
2023-01-11T12:36:05.502Z,97773.06
2023-01-11T12:38:54.251Z,97768.81
2023-01-11T12:41:50.481Z,97751.13
2023-01-11T12:44:52.855Z,97771.44
2023-01-11T12:47:48.141Z,97769.03
2023-01-11T12:50:23.002Z,97769.09
2023-01-11T12:53:19.616Z,97755.63
2023-01-11T12:56:10.295Z,97776.97
2023-01-11T12:58:48.904Z,97774.41
2023-01-11T13:01:32.478Z,97777.91
2023-01-11T13:04:53.322Z,97766.88
2023-01-11T13:07:44.299Z,97767.72
2023-01-11T13:10:23.354Z,97771.16
2023-01-11T13:12:58.986Z,97764.44
2023-01-11T13:15:42.400Z,97775.38
2023-01-11T13:18:24.717Z,97775.41
2023-01-11T13:21:01.629Z,97767.81
2023-01-11T13:23:42.446Z,97753.38
2023-01-11T13:26:23.448Z,97764.41
2023-01-11T13:28:59.148Z,97769.44
2023-01-11T13:31:29.016Z,97758.50
2023-01-11T13:34:04.039Z,97761.00
2023-01-11T13:36:40.928Z,97765.06
2023-01-11T13:39:19.005Z,97764.34
2023-01-11T13:41:55.205Z,97771.91
2023-01-11T13:44:29.925Z,97766.78
2023-01-11T13:47:05.049Z,97763.19
2023-01-11T13:49:47.303Z,97769.28
2023-01-11T13:52:18.031Z,97767.56
2023-01-11T13:54:57.495Z,97777.06
2023-01-11T13:57:37.083Z,97766.00
2023-01-11T14:00:16.737Z,97768.38
2023-01-11T14:02:50.377Z,97775.25
2023-01-11T14:05:23.996Z,97775.31
2023-01-11T14:08:08.637Z,97776.03
2023-01-11T14:10:58.624Z,97772.69
2023-01-11T14:14:16.328Z,97770.13
2023-01-11T14:17:01.482Z,97777.75
2023-01-11T14:19:36.661Z,97786.34
2023-01-11T14:22:19.715Z,97791.44
2023-01-11T14:24:58.000Z,97787.25
2023-01-11T14:27:43.685Z,97794.09
2023-01-11T14:30:32.249Z,97793.16
2023-01-11T14:33:22.854Z,97793.28
2023-01-11T14:36:20.356Z,97804.19
2023-01-11T14:39:17.980Z,97806.69
2023-01-11T14:42:34.934Z,97804.97
2023-01-11T14:45:26.511Z,97799.06
2023-01-11T14:48:19.866Z,97798.28
2023-01-11T14:51:20.905Z,97812.72
2023-01-11T14:53:55.060Z,97800.03
2023-01-11T14:56:51.907Z,97811.03
2023-01-11T14:59:36.124Z,97817.81
2023-01-11T15:02:32.260Z,97819.53
2023-01-11T15:05:10.476Z,97825.38
2023-01-11T15:07:47.773Z,97833.78
2023-01-11T15:10:57.213Z,97828.53
2023-01-11T15:13:33.759Z,97832.81
2023-01-11T15:16:29.649Z,97829.41
2023-01-11T15:19:07.277Z,97842.28
2023-01-11T15:21:41.059Z,97841.41
2023-01-11T15:24:24.592Z,97838.03
2023-01-11T15:26:54.764Z,97842.25
2023-01-11T15:29:28.754Z,97848.28
2023-01-11T15:32:17.699Z,97842.31
2023-01-11T15:34:49.553Z,97842.47
2023-01-11T15:37:33.870Z,97851.75
2023-01-11T15:40:05.325Z,97840.69
2023-01-11T15:43:15.483Z,97848.38
2023-01-11T15:46:29.275Z,97851.81
2023-01-11T15:49:45.560Z,97865.53
2023-01-11T15:52:40.462Z,97869.78
2023-01-11T15:55:42.398Z,97879.13
2023-01-11T15:58:46.399Z,97885.03
2023-01-11T16:01:28.606Z,97897.81
2023-01-11T16:04:23.837Z,97891.88
2023-01-11T16:06:58.943Z,97898.75
2023-01-11T16:09:48.108Z,97910.63
2023-01-11T16:12:38.937Z,97907.00
2023-01-11T16:15:50.139Z,97919.88
2023-01-11T16:18:24.309Z,97927.56
2023-01-11T16:21:03.521Z,97930.13
2023-01-11T16:23:32.987Z,97931.66
2023-01-11T16:26:05.242Z,97921.31
2023-01-11T16:28:34.522Z,97924.56
2023-01-11T16:31:05.584Z,97933.13
2023-01-11T16:33:38.579Z,97934.72
2023-01-11T16:36:15.070Z,97943.13
2023-01-11T16:38:56.324Z,97939.72
2023-01-11T16:41:28.513Z,97943.03
2023-01-11T16:44:05.081Z,97938.16
2023-01-11T16:47:15.855Z,97953.31
2023-01-11T16:49:52.634Z,97954.31
2023-01-11T16:52:39.699Z,97958.44
2023-01-11T16:55:24.381Z,97970.47
2023-01-11T16:58:00.375Z,97942.44
2023-01-11T17:00:36.471Z,97967.94
2023-01-11T17:03:25.878Z,97973.13
2023-01-11T17:05:59.071Z,97978.25
2023-01-11T17:08:35.114Z,97972.38
2023-01-11T17:11:21.432Z,97986.97
2023-01-11T17:14:03.578Z,97986.75
2023-01-11T17:16:38.767Z,97987.06
2023-01-11T17:19:15.487Z,97984.59
2023-01-11T17:21:53.128Z,97997.47
2023-01-11T17:24:26.034Z,97997.59
2023-01-11T17:26:59.162Z,98006.81
2023-01-11T17:29:31.738Z,98016.28
2023-01-11T17:32:03.160Z,98015.47
2023-01-11T17:34:35.549Z,98028.09
2023-01-11T17:37:10.874Z,98002.41
2023-01-11T17:39:44.231Z,98023.78
2023-01-11T17:42:32.577Z,98008.69
2023-01-11T17:45:20.840Z,98034.13
2023-01-11T17:47:52.228Z,98023.06
2023-01-11T17:50:27.961Z,98036.75
2023-01-11T17:53:16.932Z,98030.91
2023-01-11T17:55:53.336Z,98045.97
2023-01-11T17:58:26.479Z,98044.38
2023-01-11T18:01:18.539Z,98046.06
2023-01-11T18:03:51.809Z,98054.66
2023-01-11T18:06:25.953Z,98049.59
2023-01-11T18:08:59.749Z,98064.88
2023-01-11T18:11:31.824Z,98059.84
2023-01-11T18:14:03.285Z,98069.03
2023-01-11T18:16:33.721Z,98058.78
2023-01-11T18:19:03.485Z,98064.00
2023-01-11T18:21:42.514Z,98074.00
2023-01-11T18:24:34.951Z,98069.91
2023-01-11T18:27:09.530Z,98069.81
2023-01-11T18:29:52.608Z,98068.84
2023-01-11T18:32:22.938Z,98067.31
2023-01-11T18:35:01.376Z,98077.53
2023-01-11T18:37:31.390Z,98061.50
2023-01-11T18:40:03.479Z,98071.53
2023-01-11T18:42:32.847Z,98076.66
2023-01-11T18:45:02.443Z,98079.25
2023-01-11T18:47:32.361Z,98068.13
2023-01-11T18:50:01.204Z,98081.09
2023-01-11T18:52:30.307Z,98085.44
2023-01-11T18:55:01.854Z,98074.53
2023-01-11T18:57:31.348Z,98083.88
2023-01-11T19:00:00.044Z,98089.03
2023-01-11T19:02:31.398Z,98094.97
2023-01-11T19:05:03.142Z,98107.81
2023-01-11T19:07:32.865Z,98078.97
2023-01-11T19:10:03.773Z,98107.72
2023-01-11T19:12:35.897Z,98109.59
2023-01-11T19:15:04.696Z,98110.50
2023-01-11T19:17:33.664Z,98112.25
2023-01-11T19:20:03.806Z,98123.41
2023-01-11T19:22:33.315Z,98114.88
2023-01-11T19:25:04.101Z,98129.41
2023-01-11T19:27:33.131Z,98133.56
2023-01-11T19:30:02.003Z,98130.28
2023-01-11T19:32:34.263Z,98133.53
2023-01-11T19:35:04.902Z,98137.03
2023-01-11T19:37:34.604Z,98145.53
2023-01-11T19:40:06.062Z,98134.59
2023-01-11T19:42:35.735Z,98150.81
2023-01-11T19:45:05.144Z,98140.56
2023-01-11T19:47:34.185Z,98152.31
2023-01-11T19:50:02.816Z,98137.19
2023-01-11T19:52:31.361Z,98144.75
2023-01-11T19:55:00.722Z,98148.19
2023-01-11T19:57:30.800Z,98138.09
2023-01-11T20:00:00.248Z,98166.13
2023-01-11T20:02:29.040Z,98172.16
2023-01-11T20:04:59.160Z,98157.72
2023-01-11T20:07:29.243Z,98166.28
2023-01-11T20:09:58.383Z,98163.63
2023-01-11T20:12:26.955Z,98163.72
2023-01-11T20:15:01.624Z,98168.91
2023-01-11T20:17:30.386Z,98169.78
2023-01-11T20:19:58.936Z,98168.16
2023-01-11T20:22:28.662Z,98182.66
2023-01-11T20:24:58.184Z,98175.03
2023-01-11T20:27:26.790Z,98184.41
2023-01-11T20:29:57.544Z,98189.50
2023-01-11T20:32:40.191Z,98192.88
2023-01-11T20:35:11.723Z,98192.88
2023-01-11T20:37:40.695Z,98198.75
2023-01-11T20:40:13.618Z,98201.34
2023-01-11T20:42:43.193Z,98193.81
2023-01-11T20:45:14.412Z,98203.13
2023-01-11T20:47:43.100Z,98215.81
2023-01-11T20:50:12.522Z,98208.13
2023-01-11T20:52:41.187Z,98198.75
2023-01-11T20:55:11.751Z,98208.09
2023-01-11T20:57:40.636Z,98207.19
2023-01-11T21:00:14.843Z,98214.81
2023-01-11T21:02:43.671Z,98221.66
2023-01-11T21:05:12.538Z,98217.31
2023-01-11T21:07:41.344Z,98230.97
2023-01-11T21:10:11.021Z,98238.75
2023-01-11T21:12:39.729Z,98235.31
2023-01-11T21:15:11.088Z,98239.53
2023-01-11T21:17:41.339Z,98246.16
2023-01-11T21:20:11.361Z,98246.22
2023-01-11T21:22:40.152Z,98246.28
2023-01-11T21:25:10.320Z,98253.94
2023-01-11T21:27:39.776Z,98250.53
2023-01-11T21:30:10.109Z,98260.59
2023-01-11T21:32:39.060Z,98250.53
2023-01-11T21:35:10.857Z,98248.03
2023-01-11T21:37:40.261Z,98266.06
2023-01-11T21:40:10.493Z,98282.31
2023-01-11T21:42:39.957Z,98284.06
2023-01-11T21:45:10.853Z,98285.69
2023-01-11T21:47:40.049Z,98278.00
2023-01-11T21:50:13.312Z,98274.72
2023-01-11T21:52:42.374Z,98277.13
2023-01-11T21:55:12.113Z,98262.84
2023-01-11T21:57:40.875Z,98276.59
2023-01-11T22:00:13.446Z,98261.28
2023-01-11T22:02:42.029Z,98271.44
2023-01-11T22:05:13.339Z,98269.78
2023-01-11T22:07:43.752Z,98269.63
2023-01-11T22:10:12.579Z,98268.78
2023-01-11T22:12:41.413Z,98273.78
2023-01-11T22:15:11.392Z,98258.53
2023-01-11T22:17:41.458Z,98260.16
2023-01-11T22:20:15.357Z,98263.63
2023-01-11T22:22:44.008Z,98261.88
2023-01-11T22:25:12.680Z,98262.84
2023-01-11T22:27:41.164Z,98272.19
2023-01-11T22:30:11.139Z,98275.69
2023-01-11T22:32:40.456Z,98276.72
2023-01-11T22:35:10.425Z,98278.41
2023-01-11T22:37:40.895Z,98280.94
2023-01-11T22:40:13.787Z,98294.47
2023-01-11T22:42:42.211Z,98302.94
2023-01-11T22:45:12.570Z,98298.69
2023-01-11T22:47:41.047Z,98292.66
2023-01-11T22:50:11.653Z,98299.44
2023-01-11T22:52:41.577Z,98298.66
2023-01-11T22:55:10.886Z,98304.69
2023-01-11T22:57:39.303Z,98317.38
2023-01-11T23:00:09.660Z,98315.72
2023-01-11T23:02:38.362Z,98310.63
2023-01-11T23:05:07.712Z,98289.38
2023-01-11T23:07:36.327Z,98287.53
2023-01-11T23:10:08.594Z,98287.63
2023-01-11T23:12:54.278Z,98283.34
2023-01-11T23:15:23.294Z,98288.47
2023-01-11T23:17:52.281Z,98280.75
2023-01-11T23:20:21.465Z,98285.94
2023-01-11T23:22:51.904Z,98303.06
2023-01-11T23:25:22.165Z,98303.13
2023-01-11T23:27:50.690Z,98299.63
2023-01-11T23:30:19.711Z,98291.09
2023-01-11T23:32:48.507Z,98294.50
2023-01-11T23:35:17.292Z,98297.03
2023-01-11T23:37:45.813Z,98288.53
2023-01-11T23:40:14.699Z,98292.88
2023-01-11T23:42:44.945Z,98287.75
2023-01-11T23:45:13.518Z,98296.25
2023-01-11T23:47:40.967Z,98292.00
2023-01-11T23:50:12.951Z,98281.75
2023-01-11T23:52:41.912Z,98289.28
2023-01-11T23:55:11.301Z,98294.34
2023-01-11T23:57:59.673Z,98300.25
